sensor_id;sensor_type;location;lat;lon;timestamp;P1;durP1;ratioP1;P2;durP2;ratioP2
58808;SDS011;44579;51.672;7.834;2022-10-31T00:01:11;16.17;;;5.55;;
58808;SDS011;44579;51.672;7.834;2022-10-31T00:03:40;8.27;;;4.50;;
58808;SDS011;44579;51.672;7.834;2022-10-31T00:06:07;16.00;;;5.33;;
58808;SDS011;44579;51.672;7.834;2022-10-31T00:08:33;20.33;;;5.03;;
58808;SDS011;44579;51.672;7.834;2022-10-31T00:11:00;11.80;;;4.38;;
58808;SDS011;44579;51.672;7.834;2022-10-31T00:13:27;12.27;;;4.55;;
58808;SDS011;44579;51.672;7.834;2022-10-31T00:15:54;14.23;;;5.40;;
58808;SDS011;44579;51.672;7.834;2022-10-31T00:18:20;20.77;;;5.03;;
58808;SDS011;44579;51.672;7.834;2022-10-31T00:20:47;21.77;;;5.13;;
58808;SDS011;44579;51.672;7.834;2022-10-31T00:23:14;14.15;;;5.38;;
58808;SDS011;44579;51.672;7.834;2022-10-31T00:25:40;9.00;;;5.07;;
58808;SDS011;44579;51.672;7.834;2022-10-31T00:28:08;16.45;;;5.30;;
58808;SDS011;44579;51.672;7.834;2022-10-31T00:30:37;12.10;;;4.82;;
58808;SDS011;44579;51.672;7.834;2022-10-31T00:33:04;10.43;;;4.43;;
58808;SDS011;44579;51.672;7.834;2022-10-31T00:35:31;16.30;;;4.93;;
58808;SDS011;44579;51.672;7.834;2022-10-31T00:37:58;12.25;;;4.65;;
58808;SDS011;44579;51.672;7.834;2022-10-31T00:40:25;15.18;;;5.38;;
58808;SDS011;44579;51.672;7.834;2022-10-31T00:42:52;12.82;;;5.65;;
58808;SDS011;44579;51.672;7.834;2022-10-31T00:45:19;12.23;;;5.28;;
58808;SDS011;44579;51.672;7.834;2022-10-31T00:47:46;12.88;;;4.65;;
58808;SDS011;44579;51.672;7.834;2022-10-31T00:50:13;12.45;;;5.65;;
58808;SDS011;44579;51.672;7.834;2022-10-31T00:52:40;11.52;;;5.15;;
58808;SDS011;44579;51.672;7.834;2022-10-31T00:55:07;9.77;;;5.13;;
58808;SDS011;44579;51.672;7.834;2022-10-31T00:57:34;8.70;;;4.78;;
58808;SDS011;44579;51.672;7.834;2022-10-31T01:00:03;15.18;;;4.32;;
58808;SDS011;44579;51.672;7.834;2022-10-31T01:04:58;14.75;;;4.90;;
58808;SDS011;44579;51.672;7.834;2022-10-31T01:07:25;15.07;;;5.50;;
58808;SDS011;44579;51.672;7.834;2022-10-31T01:09:52;16.63;;;5.30;;
58808;SDS011;44579;51.672;7.834;2022-10-31T01:12:18;17.70;;;5.95;;
58808;SDS011;44579;51.672;7.834;2022-10-31T01:14:45;10.35;;;5.30;;
58808;SDS011;44579;51.672;7.834;2022-10-31T01:17:12;9.70;;;5.13;;
58808;SDS011;44579;51.672;7.834;2022-10-31T01:19:39;15.15;;;5.80;;
58808;SDS011;44579;51.672;7.834;2022-10-31T01:22:06;12.93;;;5.28;;
58808;SDS011;44579;51.672;7.834;2022-10-31T01:24:33;16.23;;;5.47;;
58808;SDS011;44579;51.672;7.834;2022-10-31T01:29:31;9.55;;;4.35;;
58808;SDS011;44579;51.672;7.834;2022-10-31T01:31:58;16.60;;;5.70;;
58808;SDS011;44579;51.672;7.834;2022-10-31T01:34:27;14.88;;;5.60;;
58808;SDS011;44579;51.672;7.834;2022-10-31T01:36:53;12.73;;;5.37;;
58808;SDS011;44579;51.672;7.834;2022-10-31T01:41:49;12.82;;;5.10;;
58808;SDS011;44579;51.672;7.834;2022-10-31T01:46:54;9.50;;;5.07;;
58808;SDS011;44579;51.672;7.834;2022-10-31T01:52:14;15.20;;;5.22;;
58808;SDS011;44579;51.672;7.834;2022-10-31T01:54:45;15.18;;;4.85;;
58808;SDS011;44579;51.672;7.834;2022-10-31T01:57:17;16.50;;;4.90;;
58808;SDS011;44579;51.672;7.834;2022-10-31T01:59:51;11.55;;;5.70;;
58808;SDS011;44579;51.672;7.834;2022-10-31T02:02:22;17.85;;;5.60;;
58808;SDS011;44579;51.672;7.834;2022-10-31T02:04:50;10.63;;;5.25;;
58808;SDS011;44579;51.672;7.834;2022-10-31T02:07:26;14.90;;;5.10;;
58808;SDS011;44579;51.672;7.834;2022-10-31T02:10:00;22.40;;;4.88;;
58808;SDS011;44579;51.672;7.834;2022-10-31T02:12:29;15.32;;;5.60;;
58808;SDS011;44579;51.672;7.834;2022-10-31T02:14:59;11.38;;;4.95;;
58808;SDS011;44579;51.672;7.834;2022-10-31T02:17:26;10.93;;;4.68;;
58808;SDS011;44579;51.672;7.834;2022-10-31T02:27:54;16.23;;;6.32;;
58808;SDS011;44579;51.672;7.834;2022-10-31T02:30:58;15.07;;;4.82;;
58808;SDS011;44579;51.672;7.834;2022-10-31T02:33:47;12.48;;;6.63;;
58808;SDS011;44579;51.672;7.834;2022-10-31T02:36:25;19.80;;;6.22;;
58808;SDS011;44579;51.672;7.834;2022-10-31T02:44:36;15.38;;;5.03;;
58808;SDS011;44579;51.672;7.834;2022-10-31T02:47:16;15.05;;;5.45;;
58808;SDS011;44579;51.672;7.834;2022-10-31T02:49:50;11.45;;;5.95;;
58808;SDS011;44579;51.672;7.834;2022-10-31T02:52:27;14.93;;;5.45;;
58808;SDS011;44579;51.672;7.834;2022-10-31T02:57:38;15.63;;;6.25;;
58808;SDS011;44579;51.672;7.834;2022-10-31T03:00:07;14.32;;;5.80;;
58808;SDS011;44579;51.672;7.834;2022-10-31T03:11:32;14.95;;;5.88;;
58808;SDS011;44579;51.672;7.834;2022-10-31T03:14:19;12.68;;;5.55;;
58808;SDS011;44579;51.672;7.834;2022-10-31T03:16:57;14.52;;;5.63;;
58808;SDS011;44579;51.672;7.834;2022-10-31T03:19:34;17.13;;;6.30;;
58808;SDS011;44579;51.672;7.834;2022-10-31T03:24:47;14.25;;;6.07;;
58808;SDS011;44579;51.672;7.834;2022-10-31T03:27:16;10.60;;;5.35;;
58808;SDS011;44579;51.672;7.834;2022-10-31T03:29:46;13.75;;;6.10;;
58808;SDS011;44579;51.672;7.834;2022-10-31T03:32:16;13.82;;;6.35;;
58808;SDS011;44579;51.672;7.834;2022-10-31T03:34:47;10.85;;;5.90;;
58808;SDS011;44579;51.672;7.834;2022-10-31T03:37:16;12.25;;;5.95;;
58808;SDS011;44579;51.672;7.834;2022-10-31T03:39:47;17.48;;;5.75;;
58808;SDS011;44579;51.672;7.834;2022-10-31T03:42:20;8.02;;;5.22;;
58808;SDS011;44579;51.672;7.834;2022-10-31T03:47:39;11.82;;;5.45;;
58808;SDS011;44579;51.672;7.834;2022-10-31T03:50:07;12.60;;;5.00;;
58808;SDS011;44579;51.672;7.834;2022-10-31T03:56:04;15.55;;;5.45;;
58808;SDS011;44579;51.672;7.834;2022-10-31T03:58:34;10.85;;;4.97;;
58808;SDS011;44579;51.672;7.834;2022-10-31T04:01:16;16.52;;;5.10;;
58808;SDS011;44579;51.672;7.834;2022-10-31T04:03:46;12.05;;;4.88;;
58808;SDS011;44579;51.672;7.834;2022-10-31T04:06:14;9.80;;;4.60;;
58808;SDS011;44579;51.672;7.834;2022-10-31T04:08:45;9.55;;;4.55;;
58808;SDS011;44579;51.672;7.834;2022-10-31T04:11:24;15.68;;;5.72;;
58808;SDS011;44579;51.672;7.834;2022-10-31T04:14:14;14.75;;;5.35;;
58808;SDS011;44579;51.672;7.834;2022-10-31T04:16:42;17.65;;;5.47;;
58808;SDS011;44579;51.672;7.834;2022-10-31T04:19:11;19.00;;;5.05;;
58808;SDS011;44579;51.672;7.834;2022-10-31T04:21:39;14.63;;;5.55;;
58808;SDS011;44579;51.672;7.834;2022-10-31T04:24:09;13.60;;;5.28;;
58808;SDS011;44579;51.672;7.834;2022-10-31T04:26:38;10.73;;;5.15;;
58808;SDS011;44579;51.672;7.834;2022-10-31T04:29:05;15.85;;;5.40;;
58808;SDS011;44579;51.672;7.834;2022-10-31T04:31:32;19.33;;;6.05;;
58808;SDS011;44579;51.672;7.834;2022-10-31T04:33:59;9.33;;;4.97;;
58808;SDS011;44579;51.672;7.834;2022-10-31T04:36:26;9.80;;;4.83;;
58808;SDS011;44579;51.672;7.834;2022-10-31T04:38:53;13.38;;;5.05;;
58808;SDS011;44579;51.672;7.834;2022-10-31T04:41:44;12.32;;;5.30;;
58808;SDS011;44579;51.672;7.834;2022-10-31T04:44:14;13.05;;;6.57;;
58808;SDS011;44579;51.672;7.834;2022-10-31T04:46:44;12.02;;;5.55;;
58808;SDS011;44579;51.672;7.834;2022-10-31T04:49:11;9.83;;;5.27;;
58808;SDS011;44579;51.672;7.834;2022-10-31T04:51:39;12.75;;;5.97;;
58808;SDS011;44579;51.672;7.834;2022-10-31T04:54:07;12.18;;;5.90;;
58808;SDS011;44579;51.672;7.834;2022-10-31T04:56:53;12.35;;;5.40;;
58808;SDS011;44579;51.672;7.834;2022-10-31T04:59:21;18.13;;;5.40;;
58808;SDS011;44579;51.672;7.834;2022-10-31T05:01:51;18.55;;;5.80;;
58808;SDS011;44579;51.672;7.834;2022-10-31T05:04:31;16.42;;;5.88;;
58808;SDS011;44579;51.672;7.834;2022-10-31T05:06:58;14.02;;;6.03;;
58808;SDS011;44579;51.672;7.834;2022-10-31T05:09:25;18.05;;;6.20;;
58808;SDS011;44579;51.672;7.834;2022-10-31T05:11:52;12.93;;;5.57;;
58808;SDS011;44579;51.672;7.834;2022-10-31T05:14:42;10.90;;;5.35;;
58808;SDS011;44579;51.672;7.834;2022-10-31T05:17:46;20.13;;;6.00;;
58808;SDS011;44579;51.672;7.834;2022-10-31T05:20:48;18.05;;;5.70;;
58808;SDS011;44579;51.672;7.834;2022-10-31T05:23:35;12.77;;;5.18;;
58808;SDS011;44579;51.672;7.834;2022-10-31T05:26:04;9.98;;;5.15;;
58808;SDS011;44579;51.672;7.834;2022-10-31T05:28:32;17.38;;;6.88;;
58808;SDS011;44579;51.672;7.834;2022-10-31T05:30:59;12.05;;;5.82;;
58808;SDS011;44579;51.672;7.834;2022-10-31T05:33:26;13.48;;;6.32;;
58808;SDS011;44579;51.672;7.834;2022-10-31T05:36:11;11.35;;;4.82;;
58808;SDS011;44579;51.672;7.834;2022-10-31T05:38:49;18.10;;;5.03;;
58808;SDS011;44579;51.672;7.834;2022-10-31T05:41:23;18.65;;;6.80;;
58808;SDS011;44579;51.672;7.834;2022-10-31T05:43:53;11.82;;;5.57;;
58808;SDS011;44579;51.672;7.834;2022-10-31T05:46:25;10.38;;;5.38;;
58808;SDS011;44579;51.672;7.834;2022-10-31T05:49:12;9.95;;;5.40;;
58808;SDS011;44579;51.672;7.834;2022-10-31T05:51:57;16.77;;;5.50;;
58808;SDS011;44579;51.672;7.834;2022-10-31T05:54:33;9.32;;;5.57;;
58808;SDS011;44579;51.672;7.834;2022-10-31T05:57:00;8.53;;;4.40;;
58808;SDS011;44579;51.672;7.834;2022-10-31T05:59:27;14.27;;;5.93;;
58808;SDS011;44579;51.672;7.834;2022-10-31T06:01:54;14.80;;;5.75;;
58808;SDS011;44579;51.672;7.834;2022-10-31T06:04:47;11.48;;;5.65;;
58808;SDS011;44579;51.672;7.834;2022-10-31T06:07:14;15.38;;;5.38;;
58808;SDS011;44579;51.672;7.834;2022-10-31T06:09:41;19.70;;;6.47;;
58808;SDS011;44579;51.672;7.834;2022-10-31T06:12:07;11.70;;;5.60;;
58808;SDS011;44579;51.672;7.834;2022-10-31T06:15:04;13.55;;;5.28;;
58808;SDS011;44579;51.672;7.834;2022-10-31T06:17:34;9.27;;;5.00;;
58808;SDS011;44579;51.672;7.834;2022-10-31T06:20:04;11.68;;;5.88;;
58808;SDS011;44579;51.672;7.834;2022-10-31T06:22:37;13.73;;;5.72;;
58808;SDS011;44579;51.672;7.834;2022-10-31T06:25:04;10.30;;;5.85;;
58808;SDS011;44579;51.672;7.834;2022-10-31T06:27:35;13.45;;;5.68;;
58808;SDS011;44579;51.672;7.834;2022-10-31T06:30:09;16.95;;;6.13;;
58808;SDS011;44579;51.672;7.834;2022-10-31T06:32:36;12.27;;;6.25;;
58808;SDS011;44579;51.672;7.834;2022-10-31T06:35:03;18.50;;;6.88;;
58808;SDS011;44579;51.672;7.834;2022-10-31T06:37:32;14.43;;;6.82;;
58808;SDS011;44579;51.672;7.834;2022-10-31T06:40:07;14.02;;;5.78;;
58808;SDS011;44579;51.672;7.834;2022-10-31T06:45:29;20.42;;;7.00;;
58808;SDS011;44579;51.672;7.834;2022-10-31T06:48:19;13.02;;;6.70;;
58808;SDS011;44579;51.672;7.834;2022-10-31T06:51:07;7.53;;;4.50;;
58808;SDS011;44579;51.672;7.834;2022-10-31T06:53:34;11.52;;;6.50;;
58808;SDS011;44579;51.672;7.834;2022-10-31T06:56:02;12.32;;;6.35;;
58808;SDS011;44579;51.672;7.834;2022-10-31T06:58:35;14.45;;;6.05;;
58808;SDS011;44579;51.672;7.834;2022-10-31T07:01:04;13.88;;;5.75;;
58808;SDS011;44579;51.672;7.834;2022-10-31T07:03:32;14.25;;;5.88;;
58808;SDS011;44579;51.672;7.834;2022-10-31T07:05:59;17.02;;;6.22;;
58808;SDS011;44579;51.672;7.834;2022-10-31T07:08:26;18.35;;;6.80;;
58808;SDS011;44579;51.672;7.834;2022-10-31T07:10:54;14.63;;;6.93;;
58808;SDS011;44579;51.672;7.834;2022-10-31T07:13:23;13.18;;;6.78;;
58808;SDS011;44579;51.672;7.834;2022-10-31T07:16:02;14.38;;;6.75;;
58808;SDS011;44579;51.672;7.834;2022-10-31T07:18:33;10.38;;;5.32;;
58808;SDS011;44579;51.672;7.834;2022-10-31T07:21:01;14.20;;;6.93;;
58808;SDS011;44579;51.672;7.834;2022-10-31T07:23:28;19.00;;;7.22;;
58808;SDS011;44579;51.672;7.834;2022-10-31T07:26:13;14.35;;;6.05;;
58808;SDS011;44579;51.672;7.834;2022-10-31T07:28:45;12.85;;;7.00;;
58808;SDS011;44579;51.672;7.834;2022-10-31T07:31:14;12.55;;;6.25;;
58808;SDS011;44579;51.672;7.834;2022-10-31T07:33:41;12.87;;;6.73;;
58808;SDS011;44579;51.672;7.834;2022-10-31T07:36:26;20.50;;;5.95;;
58808;SDS011;44579;51.672;7.834;2022-10-31T07:38:57;12.38;;;6.50;;
58808;SDS011;44579;51.672;7.834;2022-10-31T07:41:25;18.00;;;5.78;;
58808;SDS011;44579;51.672;7.834;2022-10-31T07:47:03;17.45;;;7.15;;
58808;SDS011;44579;51.672;7.834;2022-10-31T07:49:48;13.95;;;6.38;;
58808;SDS011;44579;51.672;7.834;2022-10-31T07:52:48;13.27;;;5.93;;
58808;SDS011;44579;51.672;7.834;2022-10-31T07:55:43;13.23;;;5.68;;
58808;SDS011;44579;51.672;7.834;2022-10-31T07:58:13;14.35;;;5.60;;
58808;SDS011;44579;51.672;7.834;2022-10-31T08:00:42;12.10;;;6.25;;
58808;SDS011;44579;51.672;7.834;2022-10-31T08:03:15;21.38;;;7.35;;
58808;SDS011;44579;51.672;7.834;2022-10-31T08:06:12;26.38;;;7.35;;
58808;SDS011;44579;51.672;7.834;2022-10-31T08:08:57;11.30;;;6.57;;
58808;SDS011;44579;51.672;7.834;2022-10-31T08:11:24;15.05;;;7.00;;
58808;SDS011;44579;51.672;7.834;2022-10-31T08:13:51;24.35;;;6.65;;
58808;SDS011;44579;51.672;7.834;2022-10-31T08:16:19;19.38;;;7.55;;
58808;SDS011;44579;51.672;7.834;2022-10-31T08:18:59;15.93;;;6.32;;
58808;SDS011;44579;51.672;7.834;2022-10-31T08:21:28;18.75;;;7.43;;
58808;SDS011;44579;51.672;7.834;2022-10-31T08:23:55;15.80;;;6.93;;
58808;SDS011;44579;51.672;7.834;2022-10-31T08:26:23;16.23;;;5.88;;
58808;SDS011;44579;51.672;7.834;2022-10-31T08:28:53;25.35;;;7.65;;
58808;SDS011;44579;51.672;7.834;2022-10-31T08:31:22;19.17;;;8.15;;
58808;SDS011;44579;51.672;7.834;2022-10-31T08:34:17;21.35;;;7.60;;
58808;SDS011;44579;51.672;7.834;2022-10-31T08:37:09;13.93;;;7.45;;
58808;SDS011;44579;51.672;7.834;2022-10-31T08:39:43;25.20;;;7.88;;
58808;SDS011;44579;51.672;7.834;2022-10-31T08:42:10;12.85;;;7.65;;
58808;SDS011;44579;51.672;7.834;2022-10-31T08:44:37;20.23;;;7.67;;
58808;SDS011;44579;51.672;7.834;2022-10-31T08:47:04;15.35;;;7.45;;
58808;SDS011;44579;51.672;7.834;2022-10-31T08:49:33;22.92;;;7.90;;
58808;SDS011;44579;51.672;7.834;2022-10-31T08:52:01;15.82;;;6.95;;
58808;SDS011;44579;51.672;7.834;2022-10-31T08:54:32;14.95;;;7.70;;
58808;SDS011;44579;51.672;7.834;2022-10-31T08:57:17;22.27;;;7.63;;
58808;SDS011;44579;51.672;7.834;2022-10-31T08:59:46;19.20;;;7.85;;
58808;SDS011;44579;51.672;7.834;2022-10-31T09:04:55;18.75;;;7.32;;
58808;SDS011;44579;51.672;7.834;2022-10-31T09:07:22;14.98;;;7.60;;
58808;SDS011;44579;51.672;7.834;2022-10-31T09:09:49;15.00;;;7.00;;
58808;SDS011;44579;51.672;7.834;2022-10-31T09:12:17;18.42;;;8.20;;
58808;SDS011;44579;51.672;7.834;2022-10-31T09:15:07;21.70;;;8.25;;
58808;SDS011;44579;51.672;7.834;2022-10-31T09:17:46;21.17;;;8.95;;
58808;SDS011;44579;51.672;7.834;2022-10-31T09:20:28;29.25;;;9.05;;
58808;SDS011;44579;51.672;7.834;2022-10-31T09:23:00;24.20;;;9.02;;
58808;SDS011;44579;51.672;7.834;2022-10-31T09:25:29;17.88;;;7.47;;
58808;SDS011;44579;51.672;7.834;2022-10-31T09:28:15;19.02;;;7.60;;
58808;SDS011;44579;51.672;7.834;2022-10-31T09:30:45;20.30;;;8.45;;
58808;SDS011;44579;51.672;7.834;2022-10-31T09:33:19;29.02;;;8.88;;
58808;SDS011;44579;51.672;7.834;2022-10-31T09:36:00;20.05;;;8.15;;
58808;SDS011;44579;51.672;7.834;2022-10-31T09:38:29;22.00;;;8.70;;
58808;SDS011;44579;51.672;7.834;2022-10-31T09:42:01;19.05;;;8.75;;
58808;SDS011;44579;51.672;7.834;2022-10-31T09:44:03;18.27;;;7.95;;
58808;SDS011;44579;51.672;7.834;2022-10-31T09:55:14;32.70;;;8.82;;
58808;SDS011;44579;51.672;7.834;2022-10-31T09:57:45;25.77;;;8.40;;
58808;SDS011;44579;51.672;7.834;2022-10-31T10:00:17;22.75;;;9.02;;
58808;SDS011;44579;51.672;7.834;2022-10-31T10:02:47;22.70;;;8.25;;
58808;SDS011;44579;51.672;7.834;2022-10-31T10:05:24;22.20;;;7.75;;
58808;SDS011;44579;51.672;7.834;2022-10-31T10:08:16;26.85;;;9.70;;
58808;SDS011;44579;51.672;7.834;2022-10-31T10:11:28;27.95;;;9.00;;
58808;SDS011;44579;51.672;7.834;2022-10-31T10:17:10;19.88;;;7.40;;
58808;SDS011;44579;51.672;7.834;2022-10-31T10:20:07;23.30;;;8.25;;
58808;SDS011;44579;51.672;7.834;2022-10-31T10:22:54;25.77;;;10.68;;
58808;SDS011;44579;51.672;7.834;2022-10-31T10:25:43;24.17;;;11.77;;
58808;SDS011;44579;51.672;7.834;2022-10-31T10:31:16;24.70;;;5.80;;
58808;SDS011;44579;51.672;7.834;2022-10-31T10:36:28;20.73;;;11.05;;
58808;SDS011;44579;51.672;7.834;2022-10-31T10:39:08;25.67;;;9.77;;
58808;SDS011;44579;51.672;7.834;2022-10-31T10:41:37;30.75;;;9.18;;
58808;SDS011;44579;51.672;7.834;2022-10-31T10:44:08;32.83;;;9.18;;
58808;SDS011;44579;51.672;7.834;2022-10-31T10:46:41;29.77;;;10.73;;
58808;SDS011;44579;51.672;7.834;2022-10-31T10:49:44;31.90;;;11.80;;
58808;SDS011;44579;51.672;7.834;2022-10-31T10:52:27;32.10;;;10.45;;
58808;SDS011;44579;51.672;7.834;2022-10-31T10:58:06;34.35;;;12.50;;
58808;SDS011;44579;51.672;7.834;2022-10-31T11:00:41;27.90;;;8.98;;
58808;SDS011;44579;51.672;7.834;2022-10-31T11:03:17;28.67;;;10.93;;
58808;SDS011;44579;51.672;7.834;2022-10-31T11:05:47;33.67;;;10.90;;
58808;SDS011;44579;51.672;7.834;2022-10-31T11:11:03;25.90;;;9.45;;
58808;SDS011;44579;51.672;7.834;2022-10-31T11:13:35;28.02;;;12.07;;
58808;SDS011;44579;51.672;7.834;2022-10-31T11:18:34;30.10;;;11.15;;
58808;SDS011;44579;51.672;7.834;2022-10-31T11:21:05;33.72;;;11.45;;
58808;SDS011;44579;51.672;7.834;2022-10-31T11:23:32;36.95;;;12.70;;
58808;SDS011;44579;51.672;7.834;2022-10-31T11:26:00;33.65;;;12.18;;
58808;SDS011;44579;51.672;7.834;2022-10-31T11:28:29;44.13;;;12.32;;
58808;SDS011;44579;51.672;7.834;2022-10-31T11:30:58;34.40;;;12.43;;
58808;SDS011;44579;51.672;7.834;2022-10-31T11:36:01;31.92;;;12.38;;
58808;SDS011;44579;51.672;7.834;2022-10-31T11:38:35;38.00;;;13.20;;
58808;SDS011;44579;51.672;7.834;2022-10-31T11:43:51;33.50;;;10.35;;
58808;SDS011;44579;51.672;7.834;2022-10-31T11:46:39;28.67;;;10.57;;
58808;SDS011;44579;51.672;7.834;2022-10-31T11:49:13;27.25;;;10.60;;
58808;SDS011;44579;51.672;7.834;2022-10-31T11:51:47;38.35;;;10.95;;
58808;SDS011;44579;51.672;7.834;2022-10-31T11:54:53;35.70;;;10.85;;
58808;SDS011;44579;51.672;7.834;2022-10-31T11:57:41;34.15;;;12.05;;
58808;SDS011;44579;51.672;7.834;2022-10-31T12:00:20;28.30;;;10.52;;
58808;SDS011;44579;51.672;7.834;2022-10-31T12:02:49;14.38;;;6.63;;
58808;SDS011;44579;51.672;7.834;2022-10-31T12:07:51;21.85;;;9.27;;
58808;SDS011;44579;51.672;7.834;2022-10-31T12:10:19;23.20;;;10.60;;
58808;SDS011;44579;51.672;7.834;2022-10-31T12:12:54;45.42;;;12.15;;
58808;SDS011;44579;51.672;7.834;2022-10-31T12:15:27;38.25;;;13.32;;
58808;SDS011;44579;51.672;7.834;2022-10-31T12:20:50;47.55;;;12.73;;
58808;SDS011;44579;51.672;7.834;2022-10-31T12:26:23;33.63;;;11.77;;
58808;SDS011;44579;51.672;7.834;2022-10-31T12:31:36;37.10;;;13.27;;
58808;SDS011;44579;51.672;7.834;2022-10-31T12:38:01;34.80;;;11.43;;
58808;SDS011;44579;51.672;7.834;2022-10-31T12:40:51;28.00;;;11.00;;
58808;SDS011;44579;51.672;7.834;2022-10-31T12:49:38;35.25;;;11.32;;
58808;SDS011;44579;51.672;7.834;2022-10-31T12:58:15;38.38;;;13.75;;
58808;SDS011;44579;51.672;7.834;2022-10-31T13:00:36;33.17;;;12.73;;
58808;SDS011;44579;51.672;7.834;2022-10-31T13:05:46;24.23;;;8.77;;
58808;SDS011;44579;51.672;7.834;2022-10-31T13:08:16;38.70;;;12.13;;
58808;SDS011;44579;51.672;7.834;2022-10-31T13:10:47;32.33;;;12.55;;
58808;SDS011;44579;51.672;7.834;2022-10-31T13:13:18;35.78;;;10.48;;
58808;SDS011;44579;51.672;7.834;2022-10-31T13:16:07;32.97;;;8.68;;
58808;SDS011;44579;51.672;7.834;2022-10-31T13:18:40;35.90;;;11.13;;
58808;SDS011;44579;51.672;7.834;2022-10-31T13:21:22;40.35;;;11.57;;
58808;SDS011;44579;51.672;7.834;2022-10-31T13:24:20;41.33;;;12.98;;
58808;SDS011;44579;51.672;7.834;2022-10-31T13:26:54;36.40;;;12.00;;
58808;SDS011;44579;51.672;7.834;2022-10-31T13:29:26;29.13;;;9.20;;
58808;SDS011;44579;51.672;7.834;2022-10-31T13:31:59;39.20;;;12.32;;
58808;SDS011;44579;51.672;7.834;2022-10-31T13:34:31;28.30;;;10.32;;
58808;SDS011;44579;51.672;7.834;2022-10-31T13:40:51;32.40;;;10.80;;
58808;SDS011;44579;51.672;7.834;2022-10-31T13:59:49;35.58;;;11.30;;
58808;SDS011;44579;51.672;7.834;2022-10-31T14:02:21;38.38;;;13.57;;
58808;SDS011;44579;51.672;7.834;2022-10-31T14:04:57;29.90;;;11.80;;
58808;SDS011;44579;51.672;7.834;2022-10-31T14:07:47;33.20;;;11.95;;
58808;SDS011;44579;51.672;7.834;2022-10-31T14:10:25;30.73;;;12.10;;
58808;SDS011;44579;51.672;7.834;2022-10-31T14:13:07;33.38;;;11.30;;
58808;SDS011;44579;51.672;7.834;2022-10-31T14:16:29;35.83;;;12.35;;
58808;SDS011;44579;51.672;7.834;2022-10-31T14:19:08;39.08;;;10.77;;
58808;SDS011;44579;51.672;7.834;2022-10-31T14:21:47;33.83;;;10.65;;
58808;SDS011;44579;51.672;7.834;2022-10-31T14:27:43;31.95;;;10.82;;
58808;SDS011;44579;51.672;7.834;2022-10-31T14:29:47;25.27;;;10.45;;
58808;SDS011;44579;51.672;7.834;2022-10-31T14:32:20;31.38;;;9.70;;
58808;SDS011;44579;51.672;7.834;2022-10-31T14:40:17;37.50;;;12.75;;
58808;SDS011;44579;51.672;7.834;2022-10-31T14:51:12;25.48;;;9.40;;
58808;SDS011;44579;51.672;7.834;2022-10-31T14:54:02;31.80;;;11.32;;
58808;SDS011;44579;51.672;7.834;2022-10-31T14:56:33;30.30;;;10.57;;
58808;SDS011;44579;51.672;7.834;2022-10-31T14:59:06;27.25;;;11.18;;
58808;SDS011;44579;51.672;7.834;2022-10-31T15:01:35;29.60;;;11.52;;
58808;SDS011;44579;51.672;7.834;2022-10-31T15:04:24;26.05;;;11.23;;
58808;SDS011;44579;51.672;7.834;2022-10-31T15:10:06;30.60;;;11.65;;
58808;SDS011;44579;51.672;7.834;2022-10-31T15:12:49;34.13;;;12.55;;
58808;SDS011;44579;51.672;7.834;2022-10-31T15:15:21;39.38;;;11.98;;
58808;SDS011;44579;51.672;7.834;2022-10-31T15:17:56;33.92;;;13.40;;
58808;SDS011;44579;51.672;7.834;2022-10-31T15:20:28;29.83;;;13.02;;
58808;SDS011;44579;51.672;7.834;2022-10-31T15:22:59;36.80;;;12.55;;
58808;SDS011;44579;51.672;7.834;2022-10-31T15:25:28;32.97;;;12.50;;
58808;SDS011;44579;51.672;7.834;2022-10-31T15:27:58;26.85;;;9.35;;
58808;SDS011;44579;51.672;7.834;2022-10-31T15:30:26;24.67;;;11.15;;
58808;SDS011;44579;51.672;7.834;2022-10-31T15:32:54;33.25;;;14.10;;
58808;SDS011;44579;51.672;7.834;2022-10-31T15:35:28;30.58;;;11.98;;
58808;SDS011;44579;51.672;7.834;2022-10-31T15:37:57;37.53;;;13.23;;
58808;SDS011;44579;51.672;7.834;2022-10-31T15:40:26;33.95;;;13.20;;
58808;SDS011;44579;51.672;7.834;2022-10-31T15:45:23;31.90;;;11.70;;
58808;SDS011;44579;51.672;7.834;2022-10-31T15:48:00;33.35;;;12.20;;
58808;SDS011;44579;51.672;7.834;2022-10-31T15:50:39;28.52;;;11.68;;
58808;SDS011;44579;51.672;7.834;2022-10-31T15:53:16;30.52;;;11.82;;
58808;SDS011;44579;51.672;7.834;2022-10-31T15:56:05;35.67;;;13.48;;
58808;SDS011;44579;51.672;7.834;2022-10-31T15:58:41;30.35;;;12.05;;
58808;SDS011;44579;51.672;7.834;2022-10-31T16:01:19;32.78;;;11.60;;
58808;SDS011;44579;51.672;7.834;2022-10-31T16:06:45;32.05;;;12.77;;
58808;SDS011;44579;51.672;7.834;2022-10-31T16:09:49;32.75;;;10.10;;
58808;SDS011;44579;51.672;7.834;2022-10-31T16:12:19;35.67;;;12.20;;
58808;SDS011;44579;51.672;7.834;2022-10-31T16:14:48;24.60;;;10.52;;
58808;SDS011;44579;51.672;7.834;2022-10-31T16:17:18;28.70;;;11.38;;
58808;SDS011;44579;51.672;7.834;2022-10-31T16:19:58;38.13;;;10.55;;
58808;SDS011;44579;51.672;7.834;2022-10-31T16:22:28;26.60;;;11.32;;
58808;SDS011;44579;51.672;7.834;2022-10-31T16:25:24;30.58;;;11.30;;
58808;SDS011;44579;51.672;7.834;2022-10-31T16:27:52;36.22;;;12.52;;
58808;SDS011;44579;51.672;7.834;2022-10-31T16:30:30;19.98;;;9.35;;
58808;SDS011;44579;51.672;7.834;2022-10-31T16:33:24;29.08;;;10.40;;
58808;SDS011;44579;51.672;7.834;2022-10-31T16:35:51;27.15;;;10.32;;
58808;SDS011;44579;51.672;7.834;2022-10-31T16:38:29;28.48;;;10.52;;
58808;SDS011;44579;51.672;7.834;2022-10-31T16:40:56;22.40;;;9.60;;
58808;SDS011;44579;51.672;7.834;2022-10-31T16:43:23;26.48;;;10.07;;
58808;SDS011;44579;51.672;7.834;2022-10-31T16:45:50;29.02;;;11.77;;
58808;SDS011;44579;51.672;7.834;2022-10-31T16:48:19;7.50;;;4.75;;
58808;SDS011;44579;51.672;7.834;2022-10-31T16:50:48;35.35;;;10.27;;
58808;SDS011;44579;51.672;7.834;2022-10-31T16:53:16;25.58;;;10.00;;
58808;SDS011;44579;51.672;7.834;2022-10-31T16:56:02;27.23;;;10.05;;
58808;SDS011;44579;51.672;7.834;2022-10-31T16:58:34;22.37;;;10.50;;
58808;SDS011;44579;51.672;7.834;2022-10-31T17:01:02;22.00;;;8.65;;
58808;SDS011;44579;51.672;7.834;2022-10-31T17:03:32;29.15;;;10.30;;
58808;SDS011;44579;51.672;7.834;2022-10-31T17:05:59;25.85;;;10.90;;
58808;SDS011;44579;51.672;7.834;2022-10-31T17:08:26;29.30;;;5.90;;
58808;SDS011;44579;51.672;7.834;2022-10-31T17:10:56;21.10;;;9.20;;
58808;SDS011;44579;51.672;7.834;2022-10-31T17:13:27;32.28;;;9.27;;
58808;SDS011;44579;51.672;7.834;2022-10-31T17:15:57;22.85;;;9.70;;
58808;SDS011;44579;51.672;7.834;2022-10-31T17:18:25;24.75;;;6.90;;
58808;SDS011;44579;51.672;7.834;2022-10-31T17:21:00;17.67;;;7.63;;
58808;SDS011;44579;51.672;7.834;2022-10-31T17:23:29;10.85;;;4.57;;
58808;SDS011;44579;51.672;7.834;2022-10-31T17:25:56;21.63;;;7.93;;
58808;SDS011;44579;51.672;7.834;2022-10-31T17:28:22;34.22;;;7.88;;
58808;SDS011;44579;51.672;7.834;2022-10-31T17:30:52;22.63;;;7.15;;
58808;SDS011;44579;51.672;7.834;2022-10-31T17:33:20;22.05;;;9.45;;
58808;SDS011;44579;51.672;7.834;2022-10-31T17:35:48;26.38;;;8.55;;
58808;SDS011;44579;51.672;7.834;2022-10-31T17:38:15;18.45;;;6.63;;
58808;SDS011;44579;51.672;7.834;2022-10-31T17:40:42;16.75;;;7.65;;
58808;SDS011;44579;51.672;7.834;2022-10-31T17:43:09;17.88;;;5.47;;
58808;SDS011;44579;51.672;7.834;2022-10-31T17:45:38;30.73;;;9.52;;
58808;SDS011;44579;51.672;7.834;2022-10-31T17:48:06;21.15;;;7.30;;
58808;SDS011;44579;51.672;7.834;2022-10-31T17:50:36;26.95;;;7.63;;